createdAt,value
2022-11-10T00:00:01.353Z,70.40
2022-11-10T05:01:01.301Z,45.00
2022-11-10T05:03:49.285Z,46.10
2022-11-10T05:06:35.956Z,45.00
2022-11-10T05:09:21.853Z,44.70
2022-11-10T05:12:08.152Z,45.70
2022-11-10T05:14:54.793Z,45.30
2022-11-10T05:17:41.479Z,46.20
2022-11-10T05:20:27.815Z,52.00
2022-11-10T05:23:33.532Z,54.90
2022-11-10T05:26:20.200Z,60.80
2022-11-10T05:29:06.612Z,61.80
2022-11-10T05:31:52.771Z,57.60
2022-11-10T05:34:39.420Z,58.20
2022-11-10T05:37:25.785Z,86.40
2022-11-10T05:40:13.302Z,82.70
2022-11-10T05:43:00.189Z,63.70
2022-11-10T05:45:45.943Z,65.00
2022-11-10T05:48:32.455Z,77.70
2022-11-10T05:51:19.279Z,53.70
2022-11-10T05:54:05.704Z,47.70
2022-11-10T05:56:51.968Z,53.90
2022-11-10T05:59:37.760Z,58.40
2022-11-10T06:02:23.331Z,49.70
2022-11-10T06:05:10.948Z,53.20
2022-11-10T06:07:58.334Z,58.20
2022-11-10T06:10:44.934Z,61.30
2022-11-10T06:13:33.614Z,61.50
2022-11-10T06:16:20.011Z,49.00
2022-11-10T06:19:06.457Z,56.80
2022-11-10T06:22:00.473Z,60.30
2022-11-10T06:24:48.769Z,59.30
2022-11-10T06:27:35.287Z,52.10
2022-11-10T06:30:21.891Z,57.10
2022-11-10T06:33:09.449Z,90.00
2022-11-10T06:35:55.820Z,83.90
2022-11-10T06:38:42.277Z,61.60
2022-11-10T06:41:32.151Z,79.00
2022-11-10T06:44:18.366Z,72.20
2022-11-10T06:47:05.080Z,58.60
2022-11-10T06:49:51.158Z,52.20
2022-11-10T06:52:37.842Z,57.50
2022-11-10T06:55:24.348Z,48.30
2022-11-10T06:58:11.018Z,44.60
2022-11-10T07:01:01.223Z,50.70
2022-11-10T07:04:13.122Z,49.80
2022-11-10T07:06:53.584Z,45.90
2022-11-10T07:09:39.642Z,69.90
2022-11-10T07:12:25.503Z,69.80
2022-11-10T07:15:12.096Z,95.20
2022-11-10T07:17:58.611Z,86.70
2022-11-10T07:20:46.362Z,63.00
2022-11-10T07:23:33.900Z,56.30
2022-11-10T07:26:19.417Z,61.90
2022-11-10T07:29:05.544Z,67.20
2022-11-10T07:31:51.312Z,58.90
2022-11-10T07:34:37.325Z,46.60
2022-11-10T07:37:23.374Z,51.30
2022-11-10T07:40:10.371Z,52.60
2022-11-10T07:42:56.077Z,52.80
2022-11-10T07:45:41.981Z,75.70
2022-11-10T07:48:28.676Z,65.60
2022-11-10T07:51:14.673Z,49.10
2022-11-10T07:54:00.978Z,48.70
2022-11-10T07:56:46.724Z,52.80
2022-11-10T07:59:32.731Z,50.60
2022-11-10T08:02:18.605Z,48.70
2022-11-10T08:05:04.972Z,40.30
2022-11-10T08:07:53.614Z,57.60
2022-11-10T08:10:41.466Z,47.40
2022-11-10T08:13:26.884Z,35.60
2022-11-10T08:16:12.940Z,77.20
2022-11-10T08:18:59.244Z,53.10
2022-11-10T08:21:45.077Z,39.00
2022-11-10T08:24:31.581Z,48.00
2022-11-10T08:27:21.185Z,39.10
2022-11-10T08:30:08.672Z,31.50
2022-11-10T08:33:00.450Z,30.50
2022-11-10T08:35:49.003Z,28.50
2022-11-10T08:38:35.031Z,33.70
2022-11-10T08:41:21.333Z,32.20
2022-11-10T08:44:10.855Z,30.60
2022-11-10T08:46:58.119Z,30.70
2022-11-10T08:49:47.017Z,33.30
2022-11-10T08:52:33.202Z,30.10
2022-11-10T08:55:20.740Z,34.70
2022-11-10T08:58:09.258Z,32.60
2022-11-10T09:00:55.727Z,28.30
2022-11-10T09:03:42.402Z,35.60
2022-11-10T09:06:29.021Z,30.60
2022-11-10T09:09:15.573Z,25.50
2022-11-10T09:12:04.938Z,21.40
2022-11-10T09:14:51.825Z,23.90
2022-11-10T09:17:40.401Z,25.60
2022-11-10T09:20:29.224Z,33.90
2022-11-10T09:23:20.001Z,31.70
2022-11-10T09:26:07.925Z,32.00
2022-11-10T09:28:54.361Z,31.90
2022-11-10T09:31:40.297Z,42.10
2022-11-10T09:34:26.668Z,29.30
2022-11-10T09:37:13.159Z,30.00
2022-11-10T09:40:01.444Z,27.50
2022-11-10T09:42:48.339Z,26.90
2022-11-10T09:45:40.328Z,27.60
2022-11-10T09:48:43.657Z,36.30
2022-11-10T09:51:36.840Z,27.60
2022-11-10T09:54:29.092Z,18.30
2022-11-10T09:57:20.716Z,25.40
2022-11-10T10:00:37.751Z,22.40
2022-11-10T10:03:30.567Z,19.00
2022-11-10T10:06:22.533Z,19.50
2022-11-10T10:09:45.413Z,21.00
2022-11-10T10:12:58.174Z,19.60
2022-11-10T10:15:55.847Z,19.70
2022-11-10T10:19:06.782Z,17.80
2022-11-10T10:22:17.001Z,21.10
2022-11-10T10:25:13.476Z,13.80
2022-11-10T10:28:12.250Z,13.60
2022-11-10T10:31:17.819Z,11.10
2022-11-10T10:34:05.132Z,18.40
2022-11-10T10:36:50.991Z,13.60
2022-11-10T10:39:44.534Z,11.20
2022-11-10T10:42:32.169Z,12.70
2022-11-10T10:45:23.364Z,17.00
2022-11-10T10:48:38.509Z,48.70
2022-11-10T10:51:31.272Z,43.30
2022-11-10T10:54:31.532Z,44.50
2022-11-10T10:57:33.593Z,35.50
2022-11-10T11:00:24.298Z,19.50
2022-11-10T11:03:30.426Z,16.80
2022-11-10T11:06:19.510Z,15.90
2022-11-10T11:09:09.592Z,12.10
2022-11-10T11:12:08.204Z,13.90
2022-11-10T11:15:14.305Z,11.80
2022-11-10T11:18:04.384Z,12.80
2022-11-10T11:20:57.062Z,14.00
2022-11-10T11:24:07.818Z,16.20
2022-11-10T11:27:03.148Z,18.10
2022-11-10T11:30:18.078Z,13.20
2022-11-10T11:36:33.487Z,11.10
2022-11-10T11:39:36.246Z,10.00
2022-11-10T11:42:26.123Z,7.80
2022-11-10T11:45:28.478Z,11.40
2022-11-10T11:48:21.157Z,10.40
2022-11-10T11:51:12.740Z,12.40
2022-11-10T11:54:17.798Z,15.20
2022-11-10T11:57:54.313Z,14.50
2022-11-10T12:00:56.912Z,13.00
2022-11-10T12:04:04.319Z,15.60
2022-11-10T12:07:14.089Z,16.30
2022-11-10T12:10:27.973Z,20.20
2022-11-10T12:13:31.070Z,22.40
2022-11-10T12:16:31.133Z,15.30
2022-11-10T12:19:30.170Z,9.70
2022-11-10T12:22:33.149Z,12.30
2022-11-10T12:25:24.370Z,9.90
2022-11-10T12:28:36.025Z,10.00
2022-11-10T12:31:25.331Z,10.70
2022-11-10T12:34:25.350Z,12.40
2022-11-10T12:37:41.947Z,18.90
2022-11-10T12:40:41.796Z,11.00
2022-11-10T12:44:18.898Z,13.60
2022-11-10T12:47:12.416Z,15.10
2022-11-10T12:50:11.181Z,17.20
2022-11-10T12:53:05.391Z,17.60
2022-11-10T12:55:58.308Z,22.90
2022-11-10T12:58:44.821Z,22.60
2022-11-10T13:01:31.123Z,56.10
2022-11-10T13:04:19.387Z,68.20
2022-11-10T13:07:12.023Z,60.70
2022-11-10T13:10:26.706Z,85.60
2022-11-10T13:13:17.351Z,54.90
2022-11-10T13:16:03.214Z,28.60
2022-11-10T13:18:54.365Z,14.30
2022-11-10T13:21:52.485Z,23.70
2022-11-10T13:24:43.465Z,24.50
2022-11-10T13:27:38.116Z,25.10
2022-11-10T13:30:43.957Z,22.00
2022-11-10T13:33:36.664Z,13.60
2022-11-10T13:36:46.958Z,16.20
2022-11-10T13:39:33.878Z,28.10
2022-11-10T13:42:24.249Z,32.10
2022-11-10T13:45:43.760Z,50.10
2022-11-10T13:48:53.875Z,20.70
2022-11-10T13:51:48.848Z,22.80
2022-11-10T13:54:50.531Z,26.80
2022-11-10T13:57:38.818Z,18.00
2022-11-10T14:00:31.990Z,16.60
2022-11-10T14:03:47.858Z,24.40
2022-11-10T14:06:37.373Z,19.80
2022-11-10T14:09:34.004Z,24.20
2022-11-10T14:12:35.893Z,68.80
2022-11-10T14:15:28.529Z,46.80
2022-11-10T14:18:38.139Z,51.00
2022-11-10T14:21:43.213Z,135.60
2022-11-10T14:24:36.481Z,97.70
2022-11-10T14:27:31.409Z,61.90
2022-11-10T14:30:25.064Z,96.80
2022-11-10T14:33:13.530Z,42.50
2022-11-10T14:36:03.784Z,40.20
2022-11-10T14:38:52.021Z,21.90
2022-11-10T14:41:46.526Z,42.90
2022-11-10T14:44:49.781Z,24.90
2022-11-10T14:47:38.273Z,16.30
2022-11-10T14:50:28.157Z,78.40
2022-11-10T14:53:31.447Z,30.00
2022-11-10T14:56:22.501Z,25.80
2022-11-10T14:59:14.512Z,31.50
2022-11-10T15:02:01.889Z,145.30
2022-11-10T15:04:51.753Z,68.60
2022-11-10T15:07:40.269Z,49.20
2022-11-10T15:10:42.779Z,54.90
2022-11-10T15:13:32.394Z,85.20
2022-11-10T15:16:28.210Z,134.20
2022-11-10T15:19:36.913Z,51.30
2022-11-10T15:22:37.439Z,70.20
2022-11-10T15:25:26.554Z,65.20
2022-11-10T15:28:28.461Z,35.60
2022-11-10T15:31:26.263Z,76.80
2022-11-10T15:34:42.220Z,46.90
2022-11-10T15:37:31.595Z,57.40
2022-11-10T15:40:52.020Z,54.60
2022-11-10T15:43:38.640Z,61.50
2022-11-10T15:46:27.069Z,51.60
2022-11-10T15:49:30.606Z,56.00
2022-11-10T15:52:19.650Z,53.80
2022-11-10T15:55:08.468Z,59.70
2022-11-10T15:57:58.442Z,74.00
2022-11-10T16:00:46.144Z,72.10
2022-11-10T16:03:35.314Z,58.10
2022-11-10T16:06:21.905Z,48.60
2022-11-10T16:09:11.498Z,44.00
2022-11-10T16:11:57.614Z,42.40
2022-11-10T16:14:55.574Z,44.60
2022-11-10T16:17:41.870Z,64.70
2022-11-10T16:20:27.733Z,61.00
2022-11-10T16:23:14.591Z,46.90
2022-11-10T16:26:00.550Z,60.60
2022-11-10T16:28:48.063Z,71.70
2022-11-10T16:31:35.351Z,94.40
2022-11-10T16:34:21.911Z,85.00
2022-11-10T16:37:12.565Z,80.20
2022-11-10T16:39:58.961Z,72.20
2022-11-10T16:42:45.419Z,68.70
2022-11-10T16:45:43.363Z,58.10
2022-11-10T16:48:33.729Z,53.50
2022-11-10T16:51:30.867Z,59.70
2022-11-10T16:54:17.347Z,54.50
2022-11-10T16:57:17.650Z,62.10
2022-11-10T17:00:04.453Z,66.10
2022-11-10T17:03:02.888Z,74.30
2022-11-10T17:05:49.059Z,72.80
2022-11-10T17:08:36.894Z,62.20
2022-11-10T17:11:24.685Z,67.30
2022-11-10T17:14:15.029Z,67.70
2022-11-10T17:17:01.226Z,80.80
2022-11-10T17:19:49.678Z,69.40
2022-11-10T17:22:36.803Z,60.60
2022-11-10T17:25:27.324Z,67.80
2022-11-10T17:28:17.069Z,56.70
2022-11-10T17:31:03.881Z,72.30
2022-11-10T17:33:49.974Z,86.10
2022-11-10T17:36:36.587Z,96.90
2022-11-10T17:39:23.502Z,84.80
2022-11-10T17:42:16.027Z,81.30
2022-11-10T17:45:01.982Z,78.40
2022-11-10T17:47:49.047Z,72.10
2022-11-10T17:50:37.201Z,80.40
2022-11-10T17:53:35.484Z,74.80
2022-11-10T17:56:21.602Z,81.50
2022-11-10T17:59:07.879Z,81.80
2022-11-10T18:01:53.745Z,95.90
2022-11-10T18:04:39.517Z,100.80
2022-11-10T18:07:26.684Z,91.60
2022-11-10T18:10:15.909Z,85.10
2022-11-10T18:13:02.161Z,80.40
2022-11-10T18:15:48.525Z,86.10
2022-11-10T18:18:36.141Z,83.20
2022-11-10T18:21:22.321Z,85.60
2022-11-10T18:24:08.116Z,89.80
2022-11-10T18:26:54.354Z,117.80
2022-11-10T18:29:44.224Z,166.70
2022-11-10T18:32:31.631Z,198.30
2022-11-10T18:35:18.303Z,199.30
2022-11-10T18:38:04.301Z,204.10
2022-11-10T18:40:50.091Z,183.60
2022-11-10T18:43:36.357Z,159.80
2022-11-10T18:46:22.163Z,153.20
2022-11-10T18:49:08.105Z,133.50
2022-11-10T18:51:54.218Z,139.60
2022-11-10T18:54:40.339Z,122.50
2022-11-10T18:57:26.668Z,117.20
2022-11-10T19:00:13.098Z,109.70
2022-11-10T19:02:59.496Z,104.30
2022-11-10T19:05:55.657Z,101.80
2022-11-10T19:08:45.360Z,127.90
2022-11-10T19:11:33.033Z,122.80
2022-11-10T19:14:18.841Z,120.90
2022-11-10T19:17:05.509Z,111.80
2022-11-10T19:19:56.178Z,116.70
2022-11-10T19:22:43.271Z,116.10
2022-11-10T19:25:29.807Z,141.40
2022-11-10T19:28:16.275Z,127.90
2022-11-10T19:31:23.642Z,120.40
2022-11-10T19:34:09.390Z,141.40
2022-11-10T19:36:54.860Z,138.10
2022-11-10T19:39:40.997Z,144.40
2022-11-10T19:42:27.714Z,142.40
2022-11-10T19:45:15.862Z,133.90
2022-11-10T19:48:04.043Z,135.30
2022-11-10T19:50:57.280Z,156.00
2022-11-10T19:53:45.883Z,141.60
2022-11-10T19:56:34.402Z,178.90
2022-11-10T19:59:21.467Z,158.90
2022-11-10T20:02:11.456Z,135.90
2022-11-10T20:05:16.689Z,112.40
2022-11-10T20:08:30.445Z,107.10
2022-11-10T20:11:26.232Z,107.70
2022-11-10T20:14:12.283Z,101.30
2022-11-10T20:16:58.958Z,95.40
2022-11-10T20:19:44.719Z,85.80
2022-11-10T20:22:30.821Z,75.90
2022-11-10T20:25:16.823Z,69.50
2022-11-10T20:28:06.195Z,96.40
2022-11-10T20:30:55.418Z,91.20
2022-11-10T20:33:41.397Z,103.60
2022-11-10T20:36:29.157Z,91.10
2022-11-10T20:39:15.000Z,109.60
2022-11-10T20:42:00.621Z,103.60
2022-11-10T20:44:46.648Z,105.80
2022-11-10T20:47:33.094Z,130.00
2022-11-10T20:50:23.946Z,136.10
2022-11-10T20:53:10.565Z,110.20
2022-11-10T20:56:02.321Z,106.90
2022-11-10T20:58:49.258Z,129.90
2022-11-10T21:01:35.674Z,144.50
2022-11-10T21:04:21.338Z,141.10
2022-11-10T21:07:07.327Z,152.60
2022-11-10T21:09:53.924Z,141.00
2022-11-10T21:12:52.825Z,110.30
2022-11-10T21:15:41.203Z,108.40
2022-11-10T21:18:30.613Z,123.10
2022-11-10T21:21:23.614Z,124.60
2022-11-10T21:24:11.598Z,120.30
2022-11-10T21:26:59.079Z,117.90
2022-11-10T21:29:44.918Z,104.00
2022-11-10T21:32:31.507Z,104.10
2022-11-10T21:35:18.300Z,90.10
2022-11-10T21:38:05.568Z,109.60
2022-11-10T21:40:51.340Z,105.60
2022-11-10T21:43:39.175Z,112.70
2022-11-10T21:46:25.000Z,118.30
2022-11-10T21:49:10.900Z,109.70
2022-11-10T21:51:57.115Z,112.90
2022-11-10T21:54:43.865Z,103.00
2022-11-10T21:57:29.544Z,99.20
2022-11-10T22:00:17.426Z,88.30
2022-11-10T22:03:06.116Z,83.40
2022-11-10T22:05:51.969Z,103.40
2022-11-10T22:08:40.300Z,124.40
2022-11-10T22:11:45.619Z,111.20
2022-11-10T22:14:50.383Z,100.60
2022-11-10T22:17:55.672Z,108.40
2022-11-10T22:20:41.451Z,106.00
2022-11-10T22:23:46.707Z,108.60
2022-11-10T22:26:32.348Z,78.30
2022-11-10T22:29:19.205Z,70.80
2022-11-10T22:32:05.099Z,69.00
2022-11-10T22:34:50.621Z,51.70
2022-11-10T22:37:36.667Z,53.50
2022-11-10T22:40:41.517Z,54.00
2022-11-10T22:43:46.551Z,57.20
2022-11-10T22:46:37.527Z,47.40
2022-11-10T22:49:25.194Z,50.40
2022-11-10T22:52:11.729Z,48.00
2022-11-10T22:54:58.772Z,49.10
2022-11-10T22:57:44.986Z,43.20
2022-11-10T23:00:31.099Z,41.20
2022-11-10T23:03:18.041Z,43.70
2022-11-10T23:06:05.066Z,46.70
2022-11-10T23:08:53.189Z,50.20
2022-11-10T23:11:39.320Z,37.60
2022-11-10T23:14:24.869Z,54.60
2022-11-10T23:17:10.730Z,65.60
2022-11-10T23:19:56.472Z,62.50
2022-11-10T23:22:42.220Z,88.80
2022-11-10T23:25:28.107Z,90.10
2022-11-10T23:28:13.830Z,77.10
2022-11-10T23:31:06.865Z,92.60
2022-11-10T23:33:57.809Z,79.10
2022-11-10T23:36:44.170Z,90.50
2022-11-10T23:39:30.828Z,61.50
2022-11-10T23:42:16.571Z,61.40
2022-11-10T23:45:02.555Z,62.50
2022-11-10T23:47:48.537Z,61.30
2022-11-10T23:50:34.654Z,53.40
2022-11-10T23:53:21.365Z,49.30
2022-11-10T23:56:11.619Z,57.40
2022-11-10T23:58:57.239Z,44.70
